Peachland Beach 10K

Back to 2014 Road Races

2014 Road Race #8

2014-07-01, Peachland, 10.0 km, 160 runners
# Name City Age GP CP Time Pace
1 Scott Tremblay Kaleden M40-44 0:35:25 03:32
2 Jeff Vogt Kelowna M35-39 0:36:31 03:39
3 Hector Carlos Penticton M40-44 0:37:23 03:44
4 Joshua Tremblay Kelowna M20-29 4 0:37:26 03:44
5 Gary Wade Kelowna M45-49 5 0:38:09 03:48
6 Sergio Pio Penticton M45-49 6 0:38:11 03:49
7 John Williams West Kelowna M40-44 7 0:39:10 03:55
8 Tim Bell Penticton M35-39 8 0:39:11 03:55
9 Paul Willinsky Kelowna M35-39 9 0:39:12 03:55
10 Michael Serani Kelowna M20-29 10 0:39:18 03:55
11 Ruan Zwanepoel Dewinton M35-39 11 4 0:40:06 04:00
12 Scott Macdougall Kelowna M35-39 12 5 0:40:22 04:02
13 Richard Tungate England M30-34 13 0:41:36 04:09
14 Dirk Handke Kelowna M45-49 14 0:42:04 04:12
15 Cindy Rhodes Kelowna F55-59 0:43:06 04:18
16 Brian Rourke Kelowna M65-69 15 0:43:20 04:20
17 Daniel Merlo Peachland M16-19 16 0:43:21 04:20
18 Andre Wickenheiser Calgary M20-29 17 0:43:22 04:20
19 Shannon Dale North Vancouver F30-34 0:43:36 04:21
20 Jason Rodine Kelowna M30-34 18 0:43:37 04:21
21 Kirbey Lockhart Coldstream M50-54 19 0:43:54 04:23
22 Marie-Josee Bedard Merritt F40-44 0:44:36 04:27
23 Morgan Lockhart Coldstream M20-29 20 4 0:45:05 04:30
24 Seija Deleenheer Vernon F35-39 4 0:45:08 04:30
25 Jared Clarke West Kelowna M35-39 21 6 0:45:23 04:32
26 Dean Fadden Vernon M45-49 22 4 0:45:38 04:33
27 Roly Muller Kelowna M60-64 23 0:45:53 04:35
28 Lance Zablotney Penticton M55-59 24 0:46:05 04:36
29 Richard Millard Penticton M40-44 25 4 0:46:09 04:36
30 Don Brimacombe Kamloops M50-54 26 0:46:22 04:38
31 Ian Young Missouri City M20-29 27 5 0:46:36 04:39
32 Nicholas Berry Peachland M45-49 28 5 0:46:44 04:40
33 Rick Jenkner Kamloops M55-59 29 0:46:46 04:40
34 Dannica Wade Kelowna F40-44 5 0:46:47 04:40
35 Aidan Lightfoot Kelowna M35-39 30 7 0:46:51 04:41
36 Leah Rodgers Kelowna F20-29 6 0:47:02 04:42
37 Scott Harkness Penticton M30-34 31 0:47:06 04:42
38 Shanda Hill Vernon F30-34 7 0:47:06 04:42
39 Jennifer Spencer Kelowna F30-34 8 0:47:09 04:42
40 Mike Braid Summerland M60-64 32 0:47:21 04:44
41 Caroline Raine West Kelowna F50-54 9 0:47:42 04:46
42 Brian Corbett Penticton M55-59 33 0:48:32 04:51
43 Matt Holmes Peachland M35-39 34 8 0:48:37 04:51
44 Krystyna Dunham Penticton F30-34 10 4 0:48:53 04:53
45 Louise Araujo Kelowna F20-29 11 0:48:54 04:53
46 Victoria Frost Kelowna F20-29 12 0:48:56 04:53
47 Siobhan Mcmanus Peachland F20-29 13 4 0:48:57 04:53
48 Carl Berardo Peachland M60-64 35 0:48:59 04:53
49 Blake Laven Penticton M35-39 36 9 0:49:09 04:54
50 Erica Malerby Peachland F35-39 14 0:49:13 04:55
51 Robin Levant Oliver F40-44 15 0:49:19 04:55
52 Janno Dewet Kelowna M35-39 37 10 0:49:21 04:56
53 Daniela Hamm Kelowna F35-39 16 0:49:26 04:56
54 Scott Davis Kelowna M40-44 38 5 0:49:30 04:57
55 Stephen Joyce Coldstream M50-54 39 0:50:03 05:00
56 Sandra Thomson Kelowna F60-64 17 0:50:07 05:00
57 Brian Young Missouri City M50-54 40 4 0:50:07 05:00
58 Chuck Abney Kelowna M55-59 41 4 0:50:17 05:01
59 Chad Biafore Kelowna M45-49 42 6 0:50:25 05:02
60 Danette Zamluk Westbank F40-44 18 4 0:50:26 05:02
61 Bill Head Penticton M60-64 43 4 0:50:45 05:04
62 Chris Greenway Kelowna M60-64 44 5 0:50:55 05:05
63 Patricia Large Kelowna F35-39 19 4 0:50:57 05:05
64 Gloria Woolner Penticton F50-54 20 0:51:00 05:06
65 Derek Johnston West Kelowna M30-34 45 4 0:51:11 05:07
66 Mike Boven Summerland M45-49 46 7 0:51:13 05:07
67 Lisa Spalding Penticton F50-54 21 0:51:25 05:08
68 Brad Meikle West Kelowna M35-39 47 11 0:51:59 05:11
69 Alexandra Myshak-Davis Kelowna F16-19 22 0:52:02 05:12
70 Jeff Marshall Lake Country M50-54 48 5 0:52:13 05:13
71 Micah Lockhart Coldstream M16-19 49 0:52:16 05:13
72 Deb Lougheed Penticton F50-54 23 4 0:52:18 05:13
73 Chelsea Marshall Kelowna F20-29 24 5 0:52:24 05:14
74 Susan Templin Kelowna F60-64 25 0:53:05 05:18
75 Larry Shannon Oliver M60-64 50 6 0:53:24 05:20
76 Rob Law Kelowna M35-39 51 12 0:53:28 05:20
77 Kendall Cowley Kelowna F20-29 26 6 0:53:39 05:21
78 Patrick Amundsen Summerland M60-64 52 7 0:53:55 05:23
79 Melvin Doherty Kamloops M65-69 53 0:53:57 05:23
80 Markus Abraham Calgary M55-59 54 5 0:54:10 05:25
81 Nicole Koch Peachland F30-34 27 5 0:54:30 05:27
82 Janice Bradshaw West Kelowna F50-54 28 5 0:54:53 05:29
83 Teddy Boyko Kelowna M65-69 55 0:54:55 05:29
84 Ken Zamluk Westbank M45-49 56 8 0:54:59 05:29
85 Veronica Medina Kelowna F35-39 29 5 0:55:05 05:30
86 Brian Abraham Kaleden M55-59 57 6 0:55:10 05:31
87 Betty Fay Peachland F50-54 30 6 0:55:40 05:34
88 Angela Ivany Kelowna F30-34 31 6 0:55:42 05:34
89 Lisa Wickenheiser Calgary F30-34 32 7 0:55:51 05:35
90 Eric Bensen Peachland M30-34 58 5 0:55:54 05:35
91 Luc-Rock Paquin Ottawa M40-44 59 6 0:56:14 05:37
92 Astrid Varga Kelowna F60-64 33 0:56:26 05:38
93 Cynthia Araujo Kelowna F45-49 34 0:56:56 05:41
94 Liz Borrett Kelowna F75-79 35 0:57:04 05:42
95 Doug Pryde Peachland M50-54 60 6 0:57:15 05:43
96 Danielle Friesen Kelowna F35-39 36 6 0:57:16 05:43
97 James King Kelowna M50-54 61 7 0:57:23 05:44
98 Rory Bass Kelowna M45-49 62 9 0:57:24 05:44
99 Marija Kozic Penticton F55-59 37 0:57:37 05:45
100 Linda Dais Kelowna F55-59 38 0:58:03 05:48
101 Steve Gray West Kelowna M40-44 63 7 0:58:12 05:49
102 Joan Wickwire Naramata F55-59 39 4 0:58:16 05:49
103 Vanessa Mclean Kamloops F40-44 40 5 0:58:56 05:53
104 Lorraine Tremblay Kamloops F40-44 41 5 0:58:56 05:53
105 Heidi Gatti Kelowna F35-39 42 7 0:59:12 05:55
106 Carole Threlfall Kelowna F35-39 43 7 0:59:12 05:55
107 Phil Infanti Penticton M30-34 64 6 0:59:39 05:57
108 Kathleen Waters Armstrong F20-29 44 7 0:59:57 05:59
109 Markus Heinrichs Kelowna M50-54 65 8 1:00:00 06:00
110 Becky Williams Winfield F55-59 45 5 1:00:12 06:01
111 Laura Heggenstaller West Kelowna F45-49 46 1:00:29 06:02
112 Garry Bell Kelowna M70-74 66 1:00:37 06:03
113 Brody Burge West Kelowna M16-19 67 1:00:45 06:04
114 Arnie Gash Kelowna F65-69 47 1:00:48 06:04
115 Brendan Burge West Kelowna M20-29 68 6 1:00:54 06:05
116 Micheal Deady Edmonton M60-64 69 8 1:00:54 06:05
117 Tom Reed Penticton M70-74 70 1:00:55 06:05
118 Kirsty Kraft West Kelowna F45-49 48 1:01:27 06:08
119 Lori Michaud Penticton F30-34 49 8 1:01:30 06:09
120 Barbara Mandau Peachland F60-64 50 4 1:01:46 06:10
121 Karen Mattiussi Kelowna F55-59 51 6 1:01:50 06:11
122 Allan Smith Osoyoos M65-69 71 4 1:02:13 06:13
123 John Kelly Langley M70-74 72 1:02:18 06:13
124 Erika Maurer Naramata F60-64 52 5 1:02:21 06:14
125 Cathy Davison Kaleden F40-44 53 7 1:02:28 06:14
126 Melissa Perry Westbank F20-29 54 8 1:02:45 06:16
127 Beryl Tremblay Kelowna F65-69 55 1:03:21 06:20
128 Jeff Dais Kelowna M50-54 73 9 1:03:34 06:21
129 Sandra Wike Kelowna F60-64 56 6 1:04:02 06:24
130 Rebekah Johnston West Kelowna F30-34 57 9 1:04:59 06:29
131 Christina Yamada Penticton F40-44 58 8 1:05:04 06:30
132 Colin Wilson Kelowna M50-54 74 10 1:05:10 06:31
133 Stephanie Rivest Kaleden F40-44 59 9 1:05:12 06:31
134 Sonia Meikle West Kelowna F35-39 60 9 1:05:13 06:31
135 Jennifer King Naramata F40-44 61 10 1:05:31 06:33
136 Sarika Dewet Kelowna F35-39 62 10 1:05:52 06:35
137 Helen Zwanepoel Dewinton F35-39 63 10 1:05:52 06:35
138 Chris Murphy West Kelowna M55-59 75 7 1:05:58 06:35
139 Lou Rutherford Naramata F55-59 64 7 1:06:26 06:38
140 Anne Carroll Summerland F55-59 65 8 1:06:31 06:39
141 Wendy Brown Kelowna F40-44 66 11 1:06:47 06:40
142 Renate Crawford Kelowna F55-59 67 9 1:06:59 06:41
143 Sasheena Tiernan Kelowna F30-34 68 10 1:07:01 06:42
144 Sherry Corder Peachland F55-59 69 10 1:07:14 06:43
145 Kathleen Yanke Salmon Arm F70-74 70 1:08:10 06:49
146 Sylvia Sunderman Penticton F45-49 71 4 1:08:16 06:49
147 Patricia Leclercq Penticton F40-44 72 12 1:08:40 06:52
148 Linda De Groot Vernon F40-44 73 13 1:08:51 06:53
149 Karen Robertson Peachland F50-54 74 7 1:08:51 06:53
150 Amanda Swoboda Kelowna F35-39 75 12 1:08:52 06:53
151 Michelle Roy Penticton F45-49 76 5 1:09:29 06:56
152 Vanessa Devlin Peachland F30-34 77 11 1:11:52 07:11
153 Emina Jasarevic Kelowna F35-39 78 13 1:12:05 07:12
154 Tara Roden Kelowna F45-49 79 6 1:12:24 07:14
155 Susan Falkenholt Kelowna F45-49 80 7 1:14:03 07:24
156 Tony Burge West Kelowna M50-54 76 11 1:15:22 07:32
157 Andreas Swoboda Kelowna M45-49 77 10 1:16:11 07:37
158 Chris Slight Calgary M35-39 78 13 1:18:01 07:48
159 Roberta Dyck Penticton F40-44 81 14 1:28:28 08:50
160 Kathryne Flannery Kamloops F55-59 82 11 1:36:53 09:41
Missing or Incorrect Results

Back to top

Age Grading - Female

# Name City Age Time Time*
1 Cindy Rhodes Kelowna F55-59 00:43:06 00:36:02
2 Liz Borrett Kelowna F75-79 00:57:04 00:39:32
3 Sandra Thomson Kelowna F60-64 00:50:07 00:40:01
4 Caroline Raine West Kelowna F50-54 00:47:42 00:41:40
5 Marie-Josee Bedard Merritt F40-44 00:44:36 00:42:18
6 Susan Templin Kelowna F60-64 00:53:05 00:42:24
7 Shannon Dale North Vancouver F30-34 00:43:36 00:43:30
8 Gloria Woolner Penticton F50-54 00:51:00 00:44:10
9 Astrid Varga Kelowna F60-64 00:56:26 00:44:13
10 Seija Deleenheer Vernon F35-39 00:45:08 00:44:18
11 Dannica Wade Kelowna F40-44 00:46:47 00:44:23
12 Deb Lougheed Penticton F50-54 00:52:18 00:45:41
13 Lisa Spalding Penticton F50-54 00:51:25 00:46:04
14 Arnie Gash Kelowna F65-69 01:00:48 00:46:16
15 Robin Levant Oliver F40-44 00:49:19 00:46:47
16 Shanda Hill Vernon F30-34 00:47:06 00:47:00
17 Leah Rodgers Kelowna F20-29 00:47:02 00:47:02
18 Jennifer Spencer Kelowna F30-34 00:47:09 00:47:03
19 Marija Kozic Penticton F55-59 00:57:37 00:47:44
20 Danette Zamluk Westbank F40-44 00:50:26 00:47:50
21 Beryl Tremblay Kelowna F65-69 01:03:21 00:48:13
22 Erica Malerby Peachland F35-39 00:49:13 00:48:18
23 Daniela Hamm Kelowna F35-39 00:49:26 00:48:31
24 Linda Dais Kelowna F55-59 00:58:03 00:48:32
25 Betty Fay Peachland F50-54 00:55:40 00:48:38
26 Krystyna Dunham Penticton F30-34 00:48:53 00:48:43
26 Joan Wickwire Naramata F55-59 00:58:16 00:48:43
28 Janice Bradshaw West Kelowna F50-54 00:54:53 00:48:46
29 Louise Araujo Kelowna F20-29 00:48:54 00:48:54
30 Victoria Frost Kelowna F20-29 00:48:56 00:48:56
31 Siobhan Mcmanus Peachland F20-29 00:48:57 00:48:57
32 Barbara Mandau Peachland F60-64 01:01:46 00:49:20
33 Erika Maurer Naramata F60-64 01:02:21 00:49:48
34 Patricia Large Kelowna F35-39 00:50:57 00:50:00
35 Becky Williams Winfield F55-59 01:00:12 00:50:20
36 Kathleen Yanke Salmon Arm F70-74 01:08:10 00:50:52
37 Alexandra Myshak-Davis Kelowna F16-19 00:52:02 00:51:40
38 Karen Mattiussi Kelowna F55-59 01:01:50 00:51:42
39 Cynthia Araujo Kelowna F45-49 00:56:56 00:51:52
40 Chelsea Marshall Kelowna F20-29 00:52:24 00:52:24
41 Sandra Wike Kelowna F60-64 01:04:02 00:52:35
42 Kendall Cowley Kelowna F20-29 00:53:39 00:53:39
43 Veronica Medina Kelowna F35-39 00:55:05 00:54:04
44 Nicole Koch Peachland F30-34 00:54:30 00:54:23
45 Laura Heggenstaller West Kelowna F45-49 01:00:29 00:55:06
46 Lou Rutherford Naramata F55-59 01:06:26 00:55:33
47 Anne Carroll Summerland F55-59 01:06:31 00:55:37
47 Angela Ivany Kelowna F30-34 00:55:42 00:55:37
49 Lisa Wickenheiser Calgary F30-34 00:55:51 00:55:44
50 Vanessa Mclean Kamloops F40-44 00:58:56 00:55:54
50 Lorraine Tremblay Kamloops F40-44 00:58:56 00:55:54
52 Kirsty Kraft West Kelowna F45-49 01:01:27 00:55:59
53 Renate Crawford Kelowna F55-59 01:06:59 00:56:00
54 Danielle Friesen Kelowna F35-39 00:57:16 00:56:12
55 Sherry Corder Peachland F55-59 01:07:14 00:56:13
56 Carole Threlfall Kelowna F35-39 00:59:12 00:58:06
56 Heidi Gatti Kelowna F35-39 00:59:12 00:58:06
58 Cathy Davison Kaleden F40-44 01:02:28 00:59:15
59 Kathleen Waters Armstrong F20-29 00:59:57 00:59:57
60 Karen Robertson Peachland F50-54 01:08:51 01:00:09
61 Lori Michaud Penticton F30-34 01:01:30 01:01:22
62 Christina Yamada Penticton F40-44 01:05:04 01:01:43
63 Stephanie Rivest Kaleden F40-44 01:05:12 01:01:51
64 Jennifer King Naramata F40-44 01:05:31 01:02:09
65 Sylvia Sunderman Penticton F45-49 01:08:16 01:02:12
66 Melissa Perry Westbank F20-29 01:02:45 01:02:45
67 Michelle Roy Penticton F45-49 01:09:29 01:03:18
68 Wendy Brown Kelowna F40-44 01:06:47 01:03:21
69 Sonia Meikle West Kelowna F35-39 01:05:13 01:04:00
70 Helen Zwanepoel Dewinton F35-39 01:05:52 01:04:39
70 Sarika Dewet Kelowna F35-39 01:05:52 01:04:39
72 Rebekah Johnston West Kelowna F30-34 01:04:59 01:04:50
73 Patricia Leclercq Penticton F40-44 01:08:40 01:05:08
74 Linda De Groot Vernon F40-44 01:08:51 01:05:19
75 Tara Roden Kelowna F45-49 01:12:24 01:05:58
76 Sasheena Tiernan Kelowna F30-34 01:07:01 01:06:52
77 Susan Falkenholt Kelowna F45-49 01:14:03 01:06:55
78 Amanda Swoboda Kelowna F35-39 01:08:52 01:07:35
79 Emina Jasarevic Kelowna F35-39 01:12:05 01:10:45
80 Vanessa Devlin Peachland F30-34 01:11:52 01:11:43
81 Kathryne Flannery Kamloops F55-59 01:36:53 01:21:00
82 Roberta Dyck Penticton F40-44 01:28:28 01:23:55
Missing or Incorrect Results

Back to top

Age Grading - Male

# Name City Age Time Time*
1 Brian Rourke Kelowna M65-69 00:43:20 00:32:59
2 Scott Tremblay Kaleden M40-44 00:35:25 00:33:36
3 Sergio Pio Penticton M45-49 00:38:11 00:34:13
4 Gary Wade Kelowna M45-49 00:38:09 00:34:46
5 Hector Carlos Penticton M40-44 00:37:23 00:35:28
6 Jeff Vogt Kelowna M35-39 00:36:31 00:35:50
7 Roly Muller Kelowna M60-64 00:45:53 00:36:59
8 John Williams West Kelowna M40-44 00:39:10 00:37:09
9 Joshua Tremblay Kelowna M20-29 00:37:26 00:37:26
10 Mike Braid Summerland M60-64 00:47:21 00:37:49
11 Dirk Handke Kelowna M45-49 00:42:04 00:38:20
12 Tim Bell Penticton M35-39 00:39:11 00:38:27
13 Paul Willinsky Kelowna M35-39 00:39:12 00:38:28
14 Kirbey Lockhart Coldstream M50-54 00:43:54 00:38:41
15 Lance Zablotney Penticton M55-59 00:46:05 00:38:53
16 Rick Jenkner Kamloops M55-59 00:46:46 00:39:06
17 Carl Berardo Peachland M60-64 00:48:59 00:39:07
18 Michael Serani Kelowna M20-29 00:39:18 00:39:18
19 Ruan Zwanepoel Dewinton M35-39 00:40:06 00:39:21
20 Scott Macdougall Kelowna M35-39 00:40:22 00:39:37
21 Don Brimacombe Kamloops M50-54 00:46:22 00:40:30
22 Bill Head Penticton M60-64 00:50:45 00:40:32
23 Brian Corbett Penticton M55-59 00:48:32 00:40:35
24 Chris Greenway Kelowna M60-64 00:50:55 00:41:03
25 Richard Tungate England M30-34 00:41:36 00:41:31
26 Dean Fadden Vernon M45-49 00:45:38 00:41:35
27 Teddy Boyko Kelowna M65-69 00:54:55 00:41:48
28 Chuck Abney Kelowna M55-59 00:50:17 00:42:03
29 Melvin Doherty Kamloops M65-69 00:53:57 00:42:17
30 Nicholas Berry Peachland M45-49 00:46:44 00:42:35
31 Larry Shannon Oliver M60-64 00:53:24 00:42:39
32 Daniel Merlo Peachland M16-19 00:43:21 00:43:03
33 Andre Wickenheiser Calgary M20-29 00:43:22 00:43:22
34 Jason Rodine Kelowna M30-34 00:43:37 00:43:31
35 Stephen Joyce Coldstream M50-54 00:50:03 00:43:43
36 Richard Millard Penticton M40-44 00:46:09 00:43:47
36 Brian Young Missouri City M50-54 00:50:07 00:43:47
38 Patrick Amundsen Summerland M60-64 00:53:55 00:44:16
39 Garry Bell Kelowna M70-74 01:00:37 00:44:18
40 Jared Clarke West Kelowna M35-39 00:45:23 00:44:32
41 John Kelly Langley M70-74 01:02:18 00:44:57
42 Tom Reed Penticton M70-74 01:00:55 00:45:00
43 Morgan Lockhart Coldstream M20-29 00:45:05 00:45:05
44 Markus Abraham Calgary M55-59 00:54:10 00:45:17
45 Jeff Marshall Lake Country M50-54 00:52:13 00:45:37
46 Chad Biafore Kelowna M45-49 00:50:25 00:45:56
47 Aidan Lightfoot Kelowna M35-39 00:46:51 00:45:59
48 Brian Abraham Kaleden M55-59 00:55:10 00:46:07
49 Ian Young Missouri City M20-29 00:46:36 00:46:36
50 Mike Boven Summerland M45-49 00:51:13 00:46:40
51 Scott Davis Kelowna M40-44 00:49:30 00:46:57
52 Scott Harkness Penticton M30-34 00:47:06 00:47:00
53 Allan Smith Osoyoos M65-69 01:02:13 00:47:21
54 Matt Holmes Peachland M35-39 00:48:37 00:47:43
55 Janno Dewet Kelowna M35-39 00:49:21 00:48:26
56 Micheal Deady Edmonton M60-64 01:00:54 00:48:38
57 Blake Laven Penticton M35-39 00:49:09 00:48:42
58 Doug Pryde Peachland M50-54 00:57:15 00:50:01
59 Ken Zamluk Westbank M45-49 00:54:59 00:50:06
60 James King Kelowna M50-54 00:57:23 00:50:08
61 Brad Meikle West Kelowna M35-39 00:51:59 00:50:46
62 Derek Johnston West Kelowna M30-34 00:51:11 00:51:04
63 Micah Lockhart Coldstream M16-19 00:52:16 00:51:54
64 Rory Bass Kelowna M45-49 00:57:24 00:52:18
65 Rob Law Kelowna M35-39 00:53:28 00:52:28
66 Markus Heinrichs Kelowna M50-54 01:00:00 00:53:19
67 Luc-Rock Paquin Ottawa M40-44 00:56:14 00:53:21
68 Chris Murphy West Kelowna M55-59 01:05:58 00:55:09
69 Steve Gray West Kelowna M40-44 00:58:12 00:55:13
70 Jeff Dais Kelowna M50-54 01:03:34 00:55:32
71 Eric Bensen Peachland M30-34 00:55:54 00:55:47
72 Colin Wilson Kelowna M50-54 01:05:10 00:56:56
73 Phil Infanti Penticton M30-34 00:59:39 00:59:31
74 Brody Burge West Kelowna M16-19 01:00:45 01:00:19
75 Brendan Burge West Kelowna M20-29 01:00:54 01:00:54
76 Tony Burge West Kelowna M50-54 01:15:22 01:05:50
77 Andreas Swoboda Kelowna M45-49 01:16:11 01:09:25
78 Chris Slight Calgary M35-39 01:18:01 01:16:34
Missing or Incorrect Results